Time;durP1;ratioP1;P1;durP2;ratioP2;P2;SDS_P1;SDS_P2;PMS_P1;PMS_P2;Temp;Humidity;BMP_temperature;BMP_pressure;BME280_temperature;BME280_humidity;BME280_pressure;Samples;Min_cycle;Max_cycle;Signal;HPM_P1;HPM_P2
2024/01/04 00:00:23;;;;;;;33.35;17.88;;;;;;;2.90;100.00;98150.91;5056215;28;20505;-80
2024/01/04 00:02:49;;;;;;;29.65;17.92;;;;;;;2.82;100.00;98160.31;5063849;28;20033;-78
2024/01/04 00:05:15;;;;;;;27.75;16.63;;;;;;;2.32;100.00;98076.03;5071505;28;20016;-78
2024/01/04 00:07:41;;;;;;;40.22;21.00;;;;;;;2.50;100.00;98100.47;5071526;28;20127;-79
2024/01/04 00:10:07;;;;;;;30.92;16.63;;;;;;;2.53;100.00;98137.88;5071552;28;20036;-78
2024/01/04 00:12:32;;;;;;;29.00;16.00;;;;;;;1.89;100.00;98061.78;5071868;28;20032;-79
2024/01/04 00:14:59;;;;;;;32.47;15.63;;;;;;;2.17;100.00;98120.84;5072828;28;20035;-80
2024/01/04 00:17:25;;;;;;;45.50;26.75;;;;;;;2.16;100.00;98108.41;5088312;28;20025;-79
2024/01/04 00:19:50;;;;;;;34.55;18.08;;;;;;;2.12;100.00;98095.94;5070648;28;20024;-79
2024/01/04 00:22:16;;;;;;;52.47;22.23;;;;;;;2.49;100.00;98163.56;5070993;28;20052;-79
2024/01/04 00:24:41;;;;;;;35.95;18.88;;;;;;;2.00;100.00;98100.66;5070642;28;20101;-80
2024/01/04 00:27:07;;;;;;;40.03;17.95;;;;;;;2.33;100.00;98172.97;5071446;28;20082;-79
2024/01/04 00:29:32;;;;;;;32.13;15.82;;;;;;;1.63;100.00;98098.41;5071342;28;20511;-79
2024/01/04 00:31:58;;;;;;;27.08;15.43;;;;;;;1.96;100.00;98140.78;5072669;28;20082;-80
2024/01/04 00:34:23;;;;;;;24.95;12.90;;;;;;;1.48;100.00;98096.91;5067977;28;20106;-79
2024/01/04 00:36:49;;;;;;;27.20;14.38;;;;;;;1.46;100.00;98110.09;5060619;28;20024;-79
2024/01/04 00:39:14;;;;;;;23.00;12.93;;;;;;;1.67;100.00;98149.38;5068383;28;20563;-79
2024/01/04 00:41:39;;;;;;;24.17;13.65;;;;;;;1.37;100.00;98079.81;5061911;28;20051;-78
2024/01/04 00:44:05;;;;;;;30.20;13.80;;;;;;;2.06;100.00;98174.59;5057509;28;20032;-78
2024/01/04 00:46:30;;;;;;;68.00;21.38;;;;;;;1.73;100.00;98126.81;5071090;28;20119;-79
2024/01/04 00:48:56;;;;;;;38.13;16.92;;;;;;;1.07;100.00;98025.81;5056608;28;20134;-79
2024/01/04 00:51:21;;;;;;;24.92;12.70;;;;;;;2.02;100.00;98152.81;5061306;28;20484;-80
2024/01/04 00:53:47;;;;;;;30.83;13.68;;;;;;;2.13;100.00;98157.47;5071042;28;20020;-79
2024/01/04 00:56:12;;;;;;;25.63;11.90;;;;;;;2.15;100.00;98147.72;5072485;28;20028;-80
2024/01/04 00:58:37;;;;;;;32.03;12.13;;;;;;;2.13;100.00;98131.00;5071270;28;20020;-79
2024/01/04 01:01:03;;;;;;;28.75;13.43;;;;;;;2.27;100.00;98133.69;5071549;28;20063;-79
2024/01/04 01:03:29;;;;;;;21.27;10.27;;;;;;;2.04;100.00;98095.22;5072774;28;20103;-79
2024/01/04 01:05:55;;;;;;;23.55;11.40;;;;;;;2.24;100.00;98117.31;5072255;28;20029;-80
2024/01/04 01:08:20;;;;;;;17.20;9.82;;;;;;;2.34;100.00;98146.50;5067869;28;20051;-79
2024/01/04 01:10:45;;;;;;;17.05;9.73;;;;;;;2.03;100.00;98107.28;5059156;28;20111;-80
2024/01/04 01:13:11;;;;;;;15.02;9.15;;;;;;;2.04;100.00;98122.47;5070363;28;20047;-80
2024/01/04 01:15:39;;;;;;;16.85;9.38;;;;;;;2.26;100.00;98143.03;5070532;28;20435;-79
2024/01/04 01:18:04;;;;;;;17.77;9.82;;;;;;;2.01;100.00;98101.44;5069974;28;20032;-79
2024/01/04 01:20:30;;;;;;;14.88;8.95;;;;;;;1.86;100.00;98073.50;5070174;28;20044;-80
2024/01/04 01:22:55;;;;;;;14.30;8.07;;;;;;;2.24;100.00;98115.38;5087617;28;20193;-80
2024/01/04 01:25:21;;;;;;;13.27;7.60;;;;;;;1.89;100.00;98078.13;5053502;28;20028;-80
2024/01/04 01:27:46;;;;;;;22.02;9.90;;;;;;;2.21;100.00;98124.34;5073299;28;20077;-79
2024/01/04 01:30:12;;;;;;;21.50;9.90;;;;;;;1.94;100.00;98106.91;5091364;28;20024;-80
2024/01/04 01:32:37;;;;;;;18.77;9.73;;;;;;;1.62;100.00;98072.38;5071221;28;20495;-79
2024/01/04 01:35:03;;;;;;;19.00;10.63;;;;;;;1.95;100.00;98135.72;5061870;28;20020;-80
2024/01/04 01:37:28;;;;;;;21.63;9.85;;;;;;;1.68;100.00;98110.88;5076158;28;20116;-79
2024/01/04 01:39:54;;;;;;;20.77;10.35;;;;;;;1.85;100.00;98148.19;5061630;28;20043;-79
2024/01/04 01:42:20;;;;;;;15.45;9.15;;;;;;;1.70;100.00;98130.31;5072796;28;20526;-79
2024/01/04 01:44:47;;;;;;;17.00;9.15;;;;;;;1.26;100.00;98079.03;5073342;28;20016;-79
2024/01/04 01:47:12;;;;;;;17.15;8.05;;;;;;;1.50;100.00;98127.25;5073280;28;20035;-80
2024/01/04 01:49:38;;;;;;;16.30;8.05;;;;;;;1.25;100.00;98069.31;5090954;28;20032;-79
2024/01/04 01:52:05;;;;;;;14.50;7.40;;;;;;;1.18;100.00;98056.50;5091205;28;20106;-80
2024/01/04 01:54:31;;;;;;;15.03;7.60;;;;;;;0.99;100.00;98058.81;5091160;28;20036;-79
2024/01/04 01:56:56;;;;;;;15.18;7.32;;;;;;;0.99;100.00;98064.25;5075375;28;20020;-80
2024/01/04 01:59:22;;;;;;;13.80;6.68;;;;;;;1.35;100.00;98103.91;5070974;28;20423;-80
2024/01/04 02:01:47;;;;;;;13.40;6.70;;;;;;;1.18;100.00;98078.25;5072904;28;20537;-80
2024/01/04 02:04:12;;;;;;;11.93;6.35;;;;;;;1.64;100.00;98154.44;5072990;28;20491;-80
2024/01/04 02:06:38;;;;;;;11.35;6.53;;;;;;;1.11;100.00;98056.50;5088935;28;20106;-80
2024/01/04 02:09:03;;;;;;;14.25;7.38;;;;;;;1.60;100.00;98129.16;5079286;28;20507;-79
2024/01/04 02:11:29;;;;;;;13.38;6.97;;;;;;;1.04;100.00;98059.22;5076285;28;20039;-80
2024/01/04 02:13:54;;;;;;;21.48;7.65;;;;;;;1.69;100.00;98157.94;5091035;28;20479;-80
2024/01/04 02:16:19;;;;;;;16.10;6.90;;;;;;;1.83;100.00;98185.94;5072745;28;20028;-79
2024/01/04 02:18:45;;;;;;;11.65;5.75;;;;;;;1.68;100.00;98149.00;5072848;28;20073;-79
2024/01/04 02:21:11;;;;;;;13.30;5.28;;;;;;;1.73;100.00;98178.56;5071208;28;20134;-80
2024/01/04 02:23:37;;;;;;;14.48;5.95;;;;;;;1.54;100.00;98125.28;5060755;28;20400;-81
2024/01/04 02:26:02;;;;;;;17.92;5.90;;;;;;;1.68;100.00;98132.66;5071744;28;20089;-80
2024/01/04 02:28:28;;;;;;;12.65;6.15;;;;;;;1.71;100.00;98131.09;5078628;28;20032;-81
2024/01/04 02:30:53;;;;;;;10.25;4.45;;;;;;;1.33;100.00;98051.81;5089886;28;20063;-80
2024/01/04 02:33:18;;;;;;;8.93;4.97;;;;;;;1.59;100.00;98077.81;5083541;28;20043;-80
2024/01/04 02:35:44;;;;;;;9.00;4.70;;;;;;;2.18;100.00;98146.94;5066659;28;20078;-80
2024/01/04 02:38:09;;;;;;;11.77;5.60;;;;;;;2.27;100.00;98157.44;5072717;28;20107;-81
2024/01/04 02:40:35;;;;;;;10.82;4.82;;;;;;;2.15;100.00;98120.47;5072621;28;20031;-81
2024/01/04 02:43:01;;;;;;;10.75;4.82;;;;;;;2.55;100.00;98160.03;5075689;28;20464;-78
2024/01/04 02:45:26;;;;;;;10.85;5.00;;;;;;;1.91;100.00;98077.75;5076381;28;20114;-80
2024/01/04 02:47:52;;;;;;;7.13;3.78;;;;;;;1.93;100.00;98155.16;5063442;28;20419;-81
2024/01/04 02:50:18;;;;;;;10.07;6.30;;;;;;;1.08;100.00;98062.72;5076662;28;20480;-80
2024/01/04 02:52:44;;;;;;;9.80;5.30;;;;;;;1.31;100.00;98102.34;5076427;28;20047;-82
2024/01/04 02:55:10;;;;;;;8.13;4.50;;;;;;;1.60;100.00;98170.00;5078947;28;20060;-81
2024/01/04 02:57:35;;;;;;;8.02;5.05;;;;;;;1.22;100.00;98121.78;5063470;28;20028;-80
2024/01/04 03:00:00;;;;;;;8.38;5.32;;;;;;;0.64;100.00;98043.25;5075805;28;20077;-78
2024/01/04 03:02:26;;;;;;;8.40;4.80;;;;;;;0.97;100.00;98094.56;5076289;28;20578;-78
2024/01/04 03:04:51;;;;;;;35.85;19.13;;;;;;;1.18;100.00;98138.13;5093898;28;20038;-79
2024/01/04 03:07:17;;;;;;;7.03;4.85;;;;;;;1.23;100.00;98063.47;5073976;28;20020;-78
2024/01/04 03:09:42;;;;;;;7.93;5.03;;;;;;;1.85;100.00;98098.38;5074132;28;20400;-78
2024/01/04 03:12:08;;;;;;;14.27;6.53;;;;;;;1.76;100.00;98117.06;5073845;28;20112;-78
2024/01/04 03:14:34;;;;;;;7.82;4.75;;;;;;;1.30;100.00;98071.66;5087545;28;20020;-78
2024/01/04 03:16:59;;;;;;;6.43;3.72;;;;;;;1.58;100.00;98123.31;5080598;28;20008;-78
2024/01/04 03:19:24;;;;;;;8.20;4.13;;;;;;;1.42;100.00;98094.97;5093693;28;20028;-79
2024/01/04 03:21:50;;;;;;;11.27;4.45;;;;;;;1.40;100.00;98078.22;5080130;28;20048;-78
2024/01/04 03:24:15;;;;;;;11.05;4.22;;;;;;;1.41;100.00;98074.34;5094153;28;20107;-77
2024/01/04 03:26:41;;;;;;;4.32;3.40;;;;;;;1.04;100.00;98063.88;5069039;28;20024;-78
2024/01/04 03:29:06;;;;;;;8.25;4.10;;;;;;;1.47;100.00;98117.13;5069130;28;20020;-79
2024/01/04 03:31:31;;;;;;;8.63;4.38;;;;;;;1.48;100.00;98107.00;5069513;28;20480;-78
2024/01/04 03:33:57;;;;;;;10.13;4.30;;;;;;;2.08;100.00;98128.66;5086737;28;20026;-78
2024/01/04 03:36:23;;;;;;;8.45;4.07;;;;;;;1.74;100.00;98049.41;5075373;28;20380;-78
2024/01/04 03:38:48;;;;;;;6.68;3.78;;;;;;;2.17;100.00;98099.03;5093754;28;20034;-79
2024/01/04 03:41:14;;;;;;;15.95;8.07;;;;;;;2.04;100.00;98079.66;5075656;28;20028;-79
2024/01/04 03:43:39;;;;;;;21.45;11.45;;;;;;;1.97;100.00;98068.00;5075212;28;20024;-80
2024/01/04 03:46:08;;;;;;;26.17;12.65;;;;;;;2.45;100.00;98118.03;5075358;28;20028;-79
2024/01/04 03:48:34;;;;;;;10.20;5.97;;;;;;;2.16;100.00;98050.41;5093717;28;20032;-78
2024/01/04 03:50:59;;;;;;;11.90;7.15;;;;;;;2.47;100.00;98106.72;5075081;28;20020;-79
2024/01/04 03:53:25;;;;;;;43.90;17.17;;;;;;;2.36;100.00;98093.13;5080410;28;20074;-78
2024/01/04 03:55:50;;;;;;;36.45;15.88;;;;;;;2.70;100.00;98125.31;5061460;28;20081;-79
2024/01/04 03:58:16;;;;;;;47.15;19.35;;;;;;;2.70;100.00;98103.50;5082594;28;20056;-77
2024/01/04 04:00:41;;;;;;;10.30;5.75;;;;;;;3.05;100.00;98127.03;5072270;28;20492;-78
2024/01/04 04:03:07;;;;;;;7.25;4.22;;;;;;;2.21;100.00;98071.78;5073462;28;20032;-78
2024/01/04 04:05:33;;;;;;;9.35;5.97;;;;;;;2.48;100.00;98102.81;5075218;28;20043;-77
2024/01/04 04:07:58;;;;;;;12.15;8.48;;;;;;;2.23;100.00;98115.78;5076072;28;20028;-78
2024/01/04 04:10:24;;;;;;;6.13;3.58;;;;;;;1.89;100.00;98063.75;5087941;28;20060;-79
2024/01/04 04:12:49;;;;;;;6.65;4.00;;;;;;;2.34;100.00;98139.09;5069847;28;20466;-79
2024/01/04 04:15:15;;;;;;;8.15;4.63;;;;;;;1.91;100.00;98104.97;5092588;28;20050;-78
2024/01/04 04:17:41;;;;;;;7.82;3.97;;;;;;;1.98;100.00;98124.81;5079766;28;20492;-78
2024/01/04 04:20:06;;;;;;;7.22;4.50;;;;;;;1.71;100.00;98076.63;5074273;28;20016;-78
2024/01/04 04:22:32;;;;;;;9.63;4.82;;;;;;;1.94;100.00;98123.25;5070472;28;20056;-79
2024/01/04 04:24:57;;;;;;;8.23;5.13;;;;;;;1.48;100.00;98031.56;5090560;28;20031;-79
2024/01/04 04:27:22;;;;;;;21.33;9.20;;;;;;;2.22;100.00;98133.31;5092548;28;20020;-78
2024/01/04 04:29:48;;;;;;;13.00;6.97;;;;;;;2.26;100.00;98137.56;5085696;28;20032;-78
2024/01/04 04:32:13;;;;;;;10.35;5.82;;;;;;;1.97;100.00;98078.91;5067897;28;20085;-78
2024/01/04 04:34:38;;;;;;;24.67;7.70;;;;;;;2.16;100.00;98097.50;5073901;28;20058;-79
2024/01/04 04:37:05;;;;;;;11.30;5.60;;;;;;;1.99;100.00;98087.44;5074471;28;20408;-78
2024/01/04 04:39:30;;;;;;;19.33;8.23;;;;;;;1.43;100.00;98088.34;5087668;28;20035;-78
2024/01/04 04:41:56;;;;;;;5.13;3.42;;;;;;;1.30;100.00;98123.34;5065314;28;20024;-78
2024/01/04 04:44:22;;;;;;;4.63;3.42;;;;;;;1.18;100.00;98100.03;5078773;28;20019;-79
2024/01/04 04:46:47;;;;;;;11.18;6.00;;;;;;;0.82;100.00;98061.16;5074007;28;20035;-79
2024/01/04 04:49:13;;;;;;;38.40;14.85;;;;;;;1.29;100.00;98132.66;5073887;28;20528;-78
2024/01/04 04:51:38;;;;;;;20.98;10.98;;;;;;;1.05;100.00;98085.25;5083227;28;20401;-78
2024/01/04 04:54:04;;;;;;;10.48;5.55;;;;;;;1.04;100.00;98059.22;5073733;28;20020;-78
2024/01/04 04:56:29;;;;;;;30.50;21.75;;;;;;;1.37;100.00;98090.69;5073804;28;20012;-78
2024/01/04 04:58:54;;;;;;;8.68;6.18;;;;;;;1.40;100.00;98081.72;5078284;28;20028;-79
2024/01/04 05:01:20;;;;;;;5.47;2.83;;;;;;;1.33;100.00;98100.00;5081222;28;20024;-79
2024/01/04 05:03:45;;;;;;;11.57;9.05;;;;;;;1.02;100.00;98058.06;5070843;28;20189;-79
2024/01/04 05:06:10;;;;;;;7.78;5.45;;;;;;;0.94;100.00;98049.13;5073706;28;20028;-79
2024/01/04 05:08:37;;;;;;;5.10;3.45;;;;;;;1.66;100.00;98128.75;5078612;28;20035;-79
2024/01/04 05:11:04;;;;;;;8.20;4.00;;;;;;;1.45;100.00;98122.16;5080177;28;20032;-79
2024/01/04 05:13:30;;;;;;;10.27;5.30;;;;;;;1.21;100.00;98088.34;5071039;28;20111;-79
2024/01/04 05:15:55;;;;;;;14.73;6.88;;;;;;;1.37;100.00;98089.91;5073861;28;20444;-79
2024/01/04 05:18:21;;;;;;;7.10;4.22;;;;;;;1.68;100.00;98150.94;5073380;28;20508;-79
2024/01/04 05:20:46;;;;;;;9.35;4.40;;;;;;;1.28;100.00;98079.41;5073518;28;20035;-79
2024/01/04 05:23:11;;;;;;;7.10;4.60;;;;;;;1.33;100.00;98067.34;5091492;28;20044;-78
2024/01/04 05:25:37;;;;;;;12.07;5.28;;;;;;;1.58;100.00;98109.72;5091585;28;20107;-79
2024/01/04 05:28:03;;;;;;;5.53;3.40;;;;;;;0.99;100.00;98039.78;5069187;28;20025;-78
2024/01/04 05:30:28;;;;;;;5.85;3.03;;;;;;;1.35;100.00;98111.28;5071614;28;20381;-79
2024/01/04 05:32:54;;;;;;;6.43;3.40;;;;;;;1.09;100.00;98063.47;5070323;28;20020;-79
2024/01/04 05:35:20;;;;;;;6.90;4.05;;;;;;;0.74;100.00;97994.34;5073646;28;20396;-78
2024/01/04 05:37:45;;;;;;;8.90;3.65;;;;;;;1.45;100.00;98108.56;5073134;28;20094;-78
2024/01/04 05:40:11;;;;;;;7.50;3.58;;;;;;;0.79;100.00;98007.53;5073243;28;20118;-79
2024/01/04 05:42:36;;;;;;;12.00;4.82;;;;;;;1.08;100.00;98046.41;5086798;28;20037;-79
2024/01/04 05:45:04;;;;;;;8.18;4.03;;;;;;;0.92;100.00;98009.88;5063613;28;20028;-79
2024/01/04 05:47:29;;;;;;;5.93;3.30;;;;;;;1.42;100.00;98093.00;5073049;28;20020;-78
2024/01/04 05:49:55;;;;;;;8.57;3.97;;;;;;;1.52;100.00;98114.00;5091090;28;20024;-78
2024/01/04 05:52:21;;;;;;;10.48;3.90;;;;;;;1.57;100.00;98121.75;5072852;28;20022;-79
2024/01/04 05:54:46;;;;;;;12.63;4.45;;;;;;;1.31;100.00;98050.66;5072970;28;20502;-80
2024/01/04 05:57:11;;;;;;;9.23;2.80;;;;;;;0.84;100.00;98057.28;5077972;28;20031;-78
2024/01/04 05:59:37;;;;;;;7.75;3.22;;;;;;;1.07;100.00;98093.03;5062609;28;20393;-80
2024/01/04 06:02:02;;;;;;;10.52;3.45;;;;;;;0.74;100.00;98058.81;5056716;28;20449;-79
2024/01/04 06:04:28;;;;;;;4.60;3.38;;;;;;;1.20;100.00;98108.59;5073042;28;20023;-78
2024/01/04 06:06:53;;;;;;;5.70;3.97;;;;;;;1.28;100.00;98116.72;5072623;28;20024;-79
2024/01/04 06:09:20;;;;;;;8.55;4.57;;;;;;;1.35;100.00;98136.56;5072957;28;20024;-78
2024/01/04 06:11:50;;;;;;;6.03;4.20;;;;;;;1.19;100.00;98089.91;5073020;28;20553;-80
2024/01/04 06:14:16;;;;;;;44.47;22.55;;;;;;;1.42;100.00;98120.22;5073348;28;20407;-78
2024/01/04 06:16:42;;;;;;;19.15;10.88;;;;;;;1.61;100.00;98116.34;5078551;28;20016;-79
2024/01/04 06:19:07;;;;;;;13.45;5.70;;;;;;;1.73;100.00;98151.31;5077203;28;20028;-79
2024/01/04 06:21:32;;;;;;;10.70;5.57;;;;;;;1.41;100.00;98121.41;5081361;28;20135;-79
2024/01/04 06:23:58;;;;;;;7.97;5.38;;;;;;;1.35;100.00;98093.00;5077050;28;20480;-78
2024/01/04 06:26:24;;;;;;;12.80;5.75;;;;;;;1.61;100.00;98095.34;5076782;28;20031;-79
2024/01/04 06:28:50;;;;;;;11.25;7.22;;;;;;;2.09;100.00;98135.69;5076640;28;20027;-79
2024/01/04 06:31:15;;;;;;;17.67;7.32;;;;;;;1.70;100.00;98066.91;5077132;28;20487;-78
2024/01/04 06:33:40;;;;;;;7.35;4.70;;;;;;;2.08;100.00;98117.00;5068104;28;20028;-78
2024/01/04 06:36:07;;;;;;;7.45;4.13;;;;;;;2.18;100.00;98127.84;5076274;28;20024;-78
2024/01/04 06:38:35;;;;;;;7.80;5.22;;;;;;;2.63;100.00;98161.56;5076581;28;20032;-79
2024/01/04 06:41:02;;;;;;;;;;;;;;;2.96;100.00;98156.69;5077329;28;20031;-79
2024/01/04 06:43:28;;;;;;;7.47;4.78;;;;;;;2.52;100.00;98103.59;5083556;28;19908;-78
2024/01/04 06:45:53;;;;;;;19.73;8.68;;;;;;;3.00;100.00;98147.34;5078861;28;20024;-78
2024/01/04 06:48:19;;;;;;;14.15;6.65;;;;;;;2.28;100.00;97998.97;5076274;28;20035;-78
2024/01/04 06:50:44;;;;;;;8.98;5.43;;;;;;;3.28;100.00;98141.69;5094605;28;20038;-79
2024/01/04 06:53:16;;;;;;;13.27;6.55;;;;;;;3.28;100.00;98117.13;5082661;28;20504;-79
2024/01/04 06:55:42;;;;;;;19.15;11.48;;;;;;;3.42;100.00;98126.38;5075687;28;20016;-78
2024/01/04 06:58:09;;;;;;;19.70;10.38;;;;;;;2.98;100.00;98067.06;5064059;28;20027;-79
2024/01/04 07:00:35;;;;;;;22.67;10.05;;;;;;;3.36;100.00;98092.50;5089093;28;20111;-78
2024/01/04 07:03:00;;;;;;;20.50;8.43;;;;;;;3.42;100.00;98072.53;5076488;28;20174;-80
2024/01/04 07:05:26;;;;;;;18.30;7.10;;;;;;;3.67;100.00;98072.31;5094134;28;20460;-78
2024/01/04 07:07:51;;;;;;;13.25;5.40;;;;;;;4.45;100.00;98151.50;5081957;28;20540;-79
2024/01/04 07:10:17;;;;;;;14.50;5.80;;;;;;;4.30;100.00;98084.47;5075415;28;20561;-79
2024/01/04 07:12:43;;;;;;;13.43;5.82;;;;;;;4.72;100.00;98113.22;5094944;28;20024;-79
2024/01/04 07:15:10;;;;;;;10.00;6.07;;;;;;;4.97;100.00;98109.38;5079795;28;20015;-79
2024/01/04 07:17:35;;;;;;;10.80;5.15;;;;;;;5.26;100.00;98116.75;5081897;28;20025;-79
2024/01/04 07:20:01;;;;;;;9.98;5.80;;;;;;;5.20;100.00;98068.34;5079329;28;20023;-79
2024/01/04 07:22:27;;;;;;;9.50;4.88;;;;;;;5.31;100.00;98066.19;5075696;28;20043;-78
2024/01/04 07:24:53;;;;;;;8.88;6.03;;;;;;;5.78;100.00;98094.34;5075659;28;20024;-78
2024/01/04 07:27:18;;;;;;;8.63;4.82;;;;;;;5.16;100.00;97966.31;5092948;28;20107;-80
2024/01/04 07:29:44;;;;;;;9.30;4.55;;;;;;;5.22;100.00;97957.19;5075460;28;20038;-79
2024/01/04 07:32:09;;;;;;;8.80;4.63;;;;;;;5.71;100.00;98001.31;5093960;28;20016;-79
2024/01/04 07:34:41;;;;;;;14.40;5.63;;;;;;;6.66;100.00;98116.56;5093571;28;20479;-79
2024/01/04 07:37:07;;;;;;;11.90;5.13;;;;;;;6.74;100.00;98120.72;5081719;28;20093;-79
2024/01/04 07:39:32;;;;;;;6.00;3.65;;;;;;;6.75;100.00;98083.06;5074049;28;20124;-81
2024/01/04 07:41:57;;;;;;;;;;;;;;;7.23;100.00;98101.56;5076078;28;20107;-78
2024/01/04 07:44:23;;;;;;;;;;;;;;;7.30;100.00;98109.63;5075790;28;19908;-79
2024/01/04 07:46:48;;;;;;;;;;;;;;;7.33;100.00;98111.53;5092699;28;20295;-79
2024/01/04 07:49:14;;;;;;;;;;;;;;;7.41;100.00;98101.13;5075857;28;19964;-79
2024/01/04 07:51:39;;;;;;;;;;;;;;;7.52;100.00;98096.94;5075387;28;19908;-79
2024/01/04 07:54:04;;;;;;;;;;;;;;;7.63;100.00;98097.44;5075376;28;20010;-79
2024/01/04 07:56:30;;;;;;;;;;;;;;;7.61;100.00;98104.53;5075821;28;19998;-78
2024/01/04 07:58:55;;;;;;;;;;;;;;;7.62;100.00;98117.09;5075142;28;20003;-78
2024/01/04 08:01:20;;;;;;;;;;;;;;;7.67;100.00;98111.06;5073599;28;19931;-78
2024/01/04 08:03:45;;;;;;;;;;;;;;;7.69;100.00;98117.69;5091543;28;20404;-78
2024/01/04 08:06:11;;;;;;;;;;;;;;;7.91;100.00;98120.66;5093585;28;20009;-78
2024/01/04 08:08:36;;;;;;;;;;;;;;;8.15;100.00;98113.72;5075309;28;19919;-79
2024/01/04 08:11:02;;;;;;;;;;;;;;;8.33;100.00;98109.75;5084255;28;19959;-78
2024/01/04 08:13:27;;;;;;;;;;;;;;;8.46;100.00;98113.31;5075181;28;19919;-79
2024/01/04 08:15:52;;;;;;;;;;;;;;;8.53;100.00;98113.13;5073307;28;19916;-78
2024/01/04 08:18:18;;;;;;;;;;;;;;;8.50;100.00;98117.50;5072808;28;19908;-80
2024/01/04 08:20:44;;;;;;;;;;;;;;;8.43;100.00;98108.69;5075037;28;19912;-79
2024/01/04 08:23:11;;;;;;;;;;;;;;;8.51;100.00;98121.03;5074893;28;19965;-78
2024/01/04 08:25:37;;;;;;;;;;;;;;;8.62;100.00;98110.47;5074922;28;19912;-78
2024/01/04 08:28:02;;;;;;;;;;;;;;;8.65;100.00;98117.88;5074712;28;20006;-78
2024/01/04 08:30:27;;;;;;;;;;;;;;;8.70;100.00;98114.59;5081970;28;20346;-78
2024/01/04 08:32:53;;;;;;;;;;;;;;;8.69;100.00;98118.53;5072160;28;19977;-78
2024/01/04 08:35:18;;;;;;;;;;;;;;;8.80;100.00;98109.97;5074786;28;20342;-78
2024/01/04 08:37:47;;;;;;;;;;;;;;;8.85;100.00;98115.72;5092724;28;19912;-78
2024/01/04 08:40:13;;;;;;;;;;;;;;;9.11;100.00;98107.44;5073849;28;20003;-79
2024/01/04 08:42:38;;;;;;;;;;;;;;;9.37;98.88;98104.25;5074554;28;19998;-78
2024/01/04 08:45:05;;;;;;;;;;;;;;;9.63;95.37;98099.47;5083910;28;19915;-78
2024/01/04 08:47:30;;;;;;;;;;;;;;;9.92;93.60;98098.50;5078356;28;19908;-79
2024/01/04 08:50:00;;;;;;;;;;;;;;;10.14;92.74;98099.31;5074516;28;20296;-78
2024/01/04 08:52:25;;;;;;;;;;;;;;;10.37;88.86;98093.38;5074330;28;19912;-78
2024/01/04 08:54:50;;;;;;;;;;;;;;;10.59;85.99;98099.66;5073866;28;19931;-78
2024/01/04 08:57:15;;;;;;;;;;;;;;;10.84;82.33;98095.22;5092173;28;19948;-79
2024/01/04 08:59:41;;;;;;;;;;;;;;;11.00;79.75;98087.44;5074145;28;19908;-78
2024/01/04 09:02:06;;;;;;;;;;;;;;;11.14;77.32;98080.59;5060787;28;19915;-77
2024/01/04 09:04:31;;;;;;;;;;;;;;;11.22;78.08;98068.00;5090900;28;20325;-79
2024/01/04 09:06:57;;;;;;;;;;;;;;;11.40;76.88;98061.75;5076775;28;19916;-78
2024/01/04 09:09:23;;;;;;;;;;;;;;;11.46;75.94;98054.41;5080378;28;20451;-79
2024/01/04 09:11:49;;;;;;;;;;;;;;;11.49;76.40;98038.91;5089066;28;20010;-79
2024/01/04 09:14:15;;;;;;;;;;;;;;;11.33;77.07;98040.69;5092279;28;19908;-79
2024/01/04 09:16:42;;;;;;;;;;;;;;;11.12;79.99;98019.44;5091993;28;20304;-78
2024/01/04 09:19:08;;;;;;;;;;;;;;;11.03;83.38;98024.94;5092185;28;19911;-78
2024/01/04 09:21:33;;;;;;;;;;;;;;;10.74;84.67;98021.75;5069858;28;20350;-78
2024/01/04 09:23:59;;;;;;;;;;;;;;;10.63;86.59;98013.13;5064178;28;19916;-79
2024/01/04 09:26:24;;;;;;;;;;;;;;;10.54;89.48;98000.81;5073533;28;20280;-79
2024/01/04 09:28:51;;;;;;;;;;;;;;;10.33;91.37;98001.63;5081386;28;19920;-78
2024/01/04 09:31:16;;;;;;;;;;;;;;;10.16;92.56;97992.78;5089135;28;19919;-80
2024/01/04 09:33:42;;;;;;;;;;;;;;;9.80;97.18;97987.75;5073775;28;19934;-79
2024/01/04 09:36:07;;;;;;;;;;;;;;;9.76;98.33;97980.81;5091419;28;19957;-79
2024/01/04 09:38:34;;;;;;;;;;;;;;;9.70;100.00;97972.38;5063587;28;19916;-78
2024/01/04 09:41:08;;;;;;;;;;;;;;;9.70;99.42;97972.38;5070415;28;20307;-79
2024/01/04 09:43:35;;;;;;;;;;;;;;;9.88;98.82;97970.94;5073313;28;19908;-79
2024/01/04 09:46:00;;;;;;;;;;;;;;;9.95;99.19;97965.16;5073198;28;19916;-80
2024/01/04 09:48:28;;;;;;;;;;;;;;;9.87;97.94;97961.91;5073655;28;19908;-79
2024/01/04 09:50:54;;;;;;;;;;;;;;;9.65;97.93;97961.88;5077826;28;19973;-79
2024/01/04 09:53:19;;;;;;;;;;;;;;;9.60;100.00;97970.72;5061783;28;20384;-79
2024/01/04 09:55:44;;;;;;;;;;;;;;;9.85;98.14;97980.09;5071638;28;19929;-79
2024/01/04 09:58:10;;;;;;;;;;;;;;;9.78;99.77;97970.88;5090060;28;19915;-79
2024/01/04 10:00:36;;;;;;;;;;;;;;;9.80;100.00;97964.91;5086147;28;19931;-80
2024/01/04 10:03:03;;;;;;;;;;;;;;;9.86;98.61;97963.13;5065504;28;20300;-80
2024/01/04 10:05:30;;;;;;;;;;;;;;;9.84;99.52;97965.53;5072608;28;19912;-80
2024/01/04 10:07:56;;;;;;;;;;;;;;;9.72;99.95;97964.38;5053708;28;19915;-81
2024/01/04 10:10:23;;;;;;;;;;;;;;;9.93;99.23;97962.84;5067204;28;19912;-79
2024/01/04 10:12:49;;;;;;;;;;;;;;;9.93;98.57;97954.59;5053436;28;19916;-79
2024/01/04 10:15:15;;;;;;;;;;;;;;;9.78;98.53;97956.31;5085781;28;19908;-79
2024/01/04 10:17:41;;;;;;;;;;;;;;;9.76;99.41;97948.47;5066491;28;19961;-79
2024/01/04 10:20:08;;;;;;;;;;;;;;;9.62;99.98;97946.25;5074111;28;19912;-80
2024/01/04 10:22:33;;;;;;;;;;;;;;;9.58;100.00;97939.31;5069683;28;19970;-79
2024/01/04 10:25:08;;;;;;;;;;;;;;;9.79;100.00;97933.78;5052439;28;20336;-79
2024/01/04 10:27:34;;;;;;;;;;;;;;;10.03;98.66;97934.09;5064878;28;19923;-78
2024/01/04 10:30:03;;;;;;;;;;;;;;;10.12;97.28;97927.88;5066294;28;19917;-79
2024/01/04 10:32:28;;;;;;;;;;;;;;;10.08;96.93;97925.22;5063620;28;20372;-79
2024/01/04 10:35:01;;;;;;;;;;;;;;;10.12;96.09;97933.38;5069662;28;19999;-79
2024/01/04 10:37:27;;;;;;;;;;;;;;;9.89;94.98;97920.03;5069810;28;19919;-79
2024/01/04 10:39:56;;;;;;;;;;;;;;;9.77;94.92;97899.59;5069550;28;19914;-79
2024/01/04 10:42:22;;;;;;;;;;;;;;;9.93;94.84;97912.41;5069547;28;19908;-78
2024/01/04 10:44:50;;;;;;;;;;;;;;;10.05;94.21;97897.78;5070973;28;20296;-78
2024/01/04 10:47:17;;;;;;;;;;;;;;;9.98;88.89;97882.25;5067332;28;19913;-79
2024/01/04 10:49:45;;;;;;;;;;;;;;;10.07;90.58;97884.28;5058079;28;19959;-78
2024/01/04 10:52:13;;;;;;;;;;;;;;;10.15;88.45;97889.06;5070780;28;19909;-79
2024/01/04 10:54:41;;;;;;;;;;;;;;;10.17;85.71;97877.63;5069726;28;19999;-78
2024/01/04 10:57:07;;;;;;;;;;;;;;;10.18;82.02;97879.16;5069416;28;19934;-79
2024/01/04 10:59:34;;;;;;;;;;;;;;;10.39;81.04;97883.84;5069531;28;19919;-79
2024/01/04 11:01:59;;;;;;;;;;;;;;;10.49;81.24;97866.06;5069336;28;19930;-78
2024/01/04 11:04:25;;;;;;;;;;;;;;;10.63;81.85;97873.00;5068263;28;19912;-78
2024/01/04 11:06:52;;;;;;;;;;;;;;;10.63;82.46;97873.00;5061785;28;19912;-79
2024/01/04 11:09:18;;;;;;;;;;;;;;;10.68;79.80;97869.63;5074336;28;19908;-78
2024/01/04 11:11:44;;;;;;;;;;;;;;;10.75;79.76;97868.56;5057305;28;19959;-78
2024/01/04 11:14:09;;;;;;;;;;;;;;;10.80;80.17;97856.91;5064626;28;19946;-79
2024/01/04 11:16:48;;;;;;;;;;;;;;;10.80;80.56;97857.69;5069403;28;19908;-79
2024/01/04 11:19:13;;;;;;;;;;;;;;;10.99;77.63;97852.94;5054458;28;20388;-78
2024/01/04 11:21:52;;;;;;;;;;;;;;;11.11;78.39;97842.97;5071050;28;19927;-78
2024/01/04 11:24:40;;;;;;;;;;;;;;;11.12;78.41;97838.97;5072408;28;19973;-80
2024/01/04 11:27:09;;;;;;;;;;;;;;;11.17;79.14;97822.53;5053314;28;20427;-78
2024/01/04 11:29:35;;;;;;;;;;;;;;;11.26;78.38;97805.97;5069376;28;20316;-80
2024/01/04 11:32:01;;;;;;;;;;;;;;;11.19;78.01;97806.28;5074172;28;19952;-79
2024/01/04 11:34:26;;;;;;;;;;;;;;;11.30;78.53;97798.28;5073458;28;19967;-78
2024/01/04 11:37:07;;;;;;;;;;;;;;;11.37;76.27;97794.41;5073907;28;19961;-79
2024/01/04 11:39:32;;;;;;;;;;;;;;;11.31;76.53;97788.75;5074344;28;19922;-79
2024/01/04 11:41:58;;;;;;;;;;;;;;;11.45;76.50;97775.50;5072492;28;20003;-78
2024/01/04 11:44:23;;;;;;;;;;;;;;;11.57;75.21;97763.50;5073554;28;19950;-79
2024/01/04 11:46:53;;;;;;;;;;;;;;;11.62;74.46;97749.03;5072408;28;19955;-80